sensor_id;sensor_type;location;lat;lon;timestamp;P1;durP1;ratioP1;P2;durP2;ratioP2
56399;SDS011;42298;53.638;9.876;2024-03-07T00:02:13;31.70;;;22.77;;
56399;SDS011;42298;53.638;9.876;2024-03-07T00:04:38;34.07;;;21.60;;
56399;SDS011;42298;53.638;9.876;2024-03-07T00:07:04;34.20;;;23.07;;
56399;SDS011;42298;53.638;9.876;2024-03-07T00:09:31;32.23;;;22.03;;
56399;SDS011;42298;53.638;9.876;2024-03-07T00:11:56;30.87;;;21.07;;
56399;SDS011;42298;53.638;9.876;2024-03-07T00:14:22;33.60;;;22.43;;
56399;SDS011;42298;53.638;9.876;2024-03-07T00:16:55;33.87;;;22.03;;
56399;SDS011;42298;53.638;9.876;2024-03-07T00:19:22;31.57;;;20.93;;
56399;SDS011;42298;53.638;9.876;2024-03-07T00:21:51;35.73;;;22.73;;
56399;SDS011;42298;53.638;9.876;2024-03-07T00:24:16;33.80;;;21.67;;
56399;SDS011;42298;53.638;9.876;2024-03-07T00:26:42;32.70;;;21.00;;
56399;SDS011;42298;53.638;9.876;2024-03-07T00:29:07;34.27;;;22.03;;
56399;SDS011;42298;53.638;9.876;2024-03-07T00:31:32;30.00;;;19.83;;
56399;SDS011;42298;53.638;9.876;2024-03-07T00:33:58;28.83;;;19.13;;
56399;SDS011;42298;53.638;9.876;2024-03-07T00:36:24;34.13;;;19.83;;
56399;SDS011;42298;53.638;9.876;2024-03-07T00:38:50;28.90;;;18.53;;
56399;SDS011;42298;53.638;9.876;2024-03-07T00:41:16;31.07;;;19.27;;
56399;SDS011;42298;53.638;9.876;2024-03-07T00:43:42;30.43;;;20.07;;
56399;SDS011;42298;53.638;9.876;2024-03-07T00:46:08;31.10;;;19.20;;
56399;SDS011;42298;53.638;9.876;2024-03-07T00:48:33;29.87;;;19.60;;
56399;SDS011;42298;53.638;9.876;2024-03-07T00:50:58;32.50;;;19.20;;
56399;SDS011;42298;53.638;9.876;2024-03-07T00:53:24;29.80;;;18.13;;
56399;SDS011;42298;53.638;9.876;2024-03-07T00:55:49;30.37;;;19.53;;
56399;SDS011;42298;53.638;9.876;2024-03-07T00:58:14;27.43;;;17.90;;
56399;SDS011;42298;53.638;9.876;2024-03-07T01:00:40;29.67;;;18.80;;
56399;SDS011;42298;53.638;9.876;2024-03-07T01:03:08;31.37;;;18.83;;
56399;SDS011;42298;53.638;9.876;2024-03-07T01:05:38;35.30;;;20.97;;
56399;SDS011;42298;53.638;9.876;2024-03-07T01:08:04;35.67;;;21.37;;
56399;SDS011;42298;53.638;9.876;2024-03-07T01:10:30;35.27;;;20.83;;
56399;SDS011;42298;53.638;9.876;2024-03-07T01:12:55;33.10;;;20.50;;
56399;SDS011;42298;53.638;9.876;2024-03-07T01:15:25;33.23;;;19.60;;
56399;SDS011;42298;53.638;9.876;2024-03-07T01:17:51;32.80;;;20.43;;
56399;SDS011;42298;53.638;9.876;2024-03-07T01:20:16;33.10;;;20.93;;
56399;SDS011;42298;53.638;9.876;2024-03-07T01:22:41;33.90;;;21.00;;
56399;SDS011;42298;53.638;9.876;2024-03-07T01:25:06;32.57;;;19.30;;
56399;SDS011;42298;53.638;9.876;2024-03-07T01:27:32;37.30;;;21.77;;
56399;SDS011;42298;53.638;9.876;2024-03-07T01:29:57;30.47;;;20.13;;
56399;SDS011;42298;53.638;9.876;2024-03-07T01:32:23;32.97;;;20.73;;
56399;SDS011;42298;53.638;9.876;2024-03-07T01:34:48;31.27;;;20.13;;
56399;SDS011;42298;53.638;9.876;2024-03-07T01:37:13;35.00;;;22.23;;
56399;SDS011;42298;53.638;9.876;2024-03-07T01:39:38;36.70;;;20.23;;
56399;SDS011;42298;53.638;9.876;2024-03-07T01:42:04;36.73;;;21.43;;
56399;SDS011;42298;53.638;9.876;2024-03-07T01:44:29;33.90;;;18.80;;
56399;SDS011;42298;53.638;9.876;2024-03-07T01:46:56;34.77;;;21.27;;
56399;SDS011;42298;53.638;9.876;2024-03-07T01:49:22;38.30;;;22.60;;
56399;SDS011;42298;53.638;9.876;2024-03-07T01:51:48;38.63;;;23.03;;
56399;SDS011;42298;53.638;9.876;2024-03-07T01:54:13;30.27;;;20.73;;
56399;SDS011;42298;53.638;9.876;2024-03-07T01:56:39;34.53;;;21.53;;
56399;SDS011;42298;53.638;9.876;2024-03-07T01:59:05;39.60;;;23.27;;
56399;SDS011;42298;53.638;9.876;2024-03-07T02:01:32;36.03;;;21.93;;
56399;SDS011;42298;53.638;9.876;2024-03-07T02:03:58;34.77;;;22.60;;
56399;SDS011;42298;53.638;9.876;2024-03-07T02:06:23;32.10;;;21.57;;
56399;SDS011;42298;53.638;9.876;2024-03-07T02:08:49;35.70;;;22.47;;
56399;SDS011;42298;53.638;9.876;2024-03-07T02:11:14;33.33;;;20.77;;
56399;SDS011;42298;53.638;9.876;2024-03-07T02:13:39;33.27;;;20.83;;
56399;SDS011;42298;53.638;9.876;2024-03-07T02:16:05;33.50;;;21.23;;
56399;SDS011;42298;53.638;9.876;2024-03-07T02:18:30;30.73;;;19.93;;
56399;SDS011;42298;53.638;9.876;2024-03-07T02:20:55;34.57;;;21.27;;
56399;SDS011;42298;53.638;9.876;2024-03-07T02:23:21;36.23;;;21.57;;
56399;SDS011;42298;53.638;9.876;2024-03-07T02:25:46;31.77;;;20.07;;
56399;SDS011;42298;53.638;9.876;2024-03-07T02:28:11;34.90;;;20.37;;
56399;SDS011;42298;53.638;9.876;2024-03-07T02:30:37;34.50;;;20.87;;
56399;SDS011;42298;53.638;9.876;2024-03-07T02:33:02;29.27;;;19.03;;
56399;SDS011;42298;53.638;9.876;2024-03-07T02:35:34;32.03;;;18.93;;
56399;SDS011;42298;53.638;9.876;2024-03-07T02:38:02;30.03;;;18.93;;
56399;SDS011;42298;53.638;9.876;2024-03-07T02:40:33;26.17;;;17.47;;
56399;SDS011;42298;53.638;9.876;2024-03-07T02:42:59;30.20;;;16.87;;
56399;SDS011;42298;53.638;9.876;2024-03-07T02:45:25;30.93;;;17.13;;
56399;SDS011;42298;53.638;9.876;2024-03-07T02:47:50;27.73;;;17.63;;
56399;SDS011;42298;53.638;9.876;2024-03-07T02:50:16;24.83;;;15.27;;
56399;SDS011;42298;53.638;9.876;2024-03-07T02:52:42;27.63;;;16.20;;
56399;SDS011;42298;53.638;9.876;2024-03-07T02:55:07;31.53;;;16.73;;
56399;SDS011;42298;53.638;9.876;2024-03-07T02:57:35;28.87;;;17.37;;
56399;SDS011;42298;53.638;9.876;2024-03-07T03:00:16;29.83;;;15.83;;
56399;SDS011;42298;53.638;9.876;2024-03-07T03:02:45;25.10;;;15.47;;
56399;SDS011;42298;53.638;9.876;2024-03-07T03:05:12;27.07;;;16.80;;
56399;SDS011;42298;53.638;9.876;2024-03-07T03:07:39;29.47;;;16.57;;
56399;SDS011;42298;53.638;9.876;2024-03-07T03:10:04;26.77;;;16.43;;
56399;SDS011;42298;53.638;9.876;2024-03-07T03:12:34;25.00;;;15.53;;
56399;SDS011;42298;53.638;9.876;2024-03-07T03:15:02;26.77;;;16.30;;
56399;SDS011;42298;53.638;9.876;2024-03-07T03:17:29;28.47;;;15.23;;
56399;SDS011;42298;53.638;9.876;2024-03-07T03:19:55;25.00;;;15.77;;
56399;SDS011;42298;53.638;9.876;2024-03-07T03:22:21;26.63;;;17.07;;
56399;SDS011;42298;53.638;9.876;2024-03-07T03:24:46;26.60;;;16.20;;
56399;SDS011;42298;53.638;9.876;2024-03-07T03:27:12;27.67;;;15.50;;
56399;SDS011;42298;53.638;9.876;2024-03-07T03:29:37;23.13;;;14.10;;
56399;SDS011;42298;53.638;9.876;2024-03-07T03:32:02;21.07;;;12.87;;
56399;SDS011;42298;53.638;9.876;2024-03-07T03:34:28;25.20;;;14.87;;
56399;SDS011;42298;53.638;9.876;2024-03-07T03:36:53;22.50;;;13.63;;
56399;SDS011;42298;53.638;9.876;2024-03-07T03:39:19;23.37;;;14.30;;
56399;SDS011;42298;53.638;9.876;2024-03-07T03:41:45;23.80;;;13.90;;
56399;SDS011;42298;53.638;9.876;2024-03-07T03:44:11;23.20;;;14.17;;
56399;SDS011;42298;53.638;9.876;2024-03-07T03:46:36;21.57;;;13.07;;
56399;SDS011;42298;53.638;9.876;2024-03-07T03:49:02;20.73;;;13.47;;
56399;SDS011;42298;53.638;9.876;2024-03-07T03:51:27;21.33;;;14.07;;
56399;SDS011;42298;53.638;9.876;2024-03-07T03:53:53;22.53;;;14.03;;
56399;SDS011;42298;53.638;9.876;2024-03-07T03:56:18;21.33;;;14.73;;
56399;SDS011;42298;53.638;9.876;2024-03-07T03:58:43;22.10;;;13.97;;
56399;SDS011;42298;53.638;9.876;2024-03-07T04:01:09;22.23;;;14.53;;
56399;SDS011;42298;53.638;9.876;2024-03-07T04:03:38;26.70;;;15.57;;
56399;SDS011;42298;53.638;9.876;2024-03-07T04:06:04;23.67;;;15.33;;
56399;SDS011;42298;53.638;9.876;2024-03-07T04:08:29;24.57;;;16.17;;
56399;SDS011;42298;53.638;9.876;2024-03-07T04:10:55;24.43;;;15.07;;
56399;SDS011;42298;53.638;9.876;2024-03-07T04:13:20;23.87;;;15.00;;
56399;SDS011;42298;53.638;9.876;2024-03-07T04:15:47;24.70;;;16.00;;
56399;SDS011;42298;53.638;9.876;2024-03-07T04:18:12;23.40;;;15.43;;
56399;SDS011;42298;53.638;9.876;2024-03-07T04:20:38;23.10;;;17.77;;
56399;SDS011;42298;53.638;9.876;2024-03-07T04:23:04;22.30;;;15.27;;
56399;SDS011;42298;53.638;9.876;2024-03-07T04:25:30;24.37;;;15.80;;
56399;SDS011;42298;53.638;9.876;2024-03-07T04:27:58;23.47;;;15.40;;
56399;SDS011;42298;53.638;9.876;2024-03-07T04:30:23;24.07;;;15.40;;
56399;SDS011;42298;53.638;9.876;2024-03-07T04:32:48;25.57;;;15.93;;
56399;SDS011;42298;53.638;9.876;2024-03-07T04:35:14;28.27;;;16.50;;
56399;SDS011;42298;53.638;9.876;2024-03-07T04:37:39;24.10;;;16.40;;
56399;SDS011;42298;53.638;9.876;2024-03-07T04:40:06;24.70;;;16.03;;
56399;SDS011;42298;53.638;9.876;2024-03-07T04:42:43;21.33;;;15.53;;
56399;SDS011;42298;53.638;9.876;2024-03-07T04:45:15;23.20;;;14.17;;
56399;SDS011;42298;53.638;9.876;2024-03-07T04:47:41;20.67;;;14.57;;
56399;SDS011;42298;53.638;9.876;2024-03-07T04:50:08;23.57;;;14.53;;
56399;SDS011;42298;53.638;9.876;2024-03-07T04:52:36;20.40;;;14.23;;
56399;SDS011;42298;53.638;9.876;2024-03-07T04:55:02;23.87;;;15.97;;
56399;SDS011;42298;53.638;9.876;2024-03-07T04:57:28;23.73;;;14.73;;
56399;SDS011;42298;53.638;9.876;2024-03-07T04:59:54;22.17;;;14.80;;
56399;SDS011;42298;53.638;9.876;2024-03-07T05:02:20;22.83;;;15.33;;
56399;SDS011;42298;53.638;9.876;2024-03-07T05:04:45;22.53;;;15.60;;
56399;SDS011;42298;53.638;9.876;2024-03-07T05:07:11;21.77;;;15.30;;
56399;SDS011;42298;53.638;9.876;2024-03-07T05:09:37;21.93;;;14.53;;
56399;SDS011;42298;53.638;9.876;2024-03-07T05:12:02;23.97;;;17.20;;
56399;SDS011;42298;53.638;9.876;2024-03-07T05:14:27;20.60;;;16.23;;
56399;SDS011;42298;53.638;9.876;2024-03-07T05:16:53;22.03;;;15.57;;
56399;SDS011;42298;53.638;9.876;2024-03-07T05:19:34;24.23;;;14.77;;
56399;SDS011;42298;53.638;9.876;2024-03-07T05:22:00;23.27;;;15.03;;
56399;SDS011;42298;53.638;9.876;2024-03-07T05:24:26;23.33;;;15.07;;
56399;SDS011;42298;53.638;9.876;2024-03-07T05:26:52;22.17;;;14.33;;
56399;SDS011;42298;53.638;9.876;2024-03-07T05:29:18;24.10;;;14.60;;
56399;SDS011;42298;53.638;9.876;2024-03-07T05:31:44;19.87;;;13.37;;
56399;SDS011;42298;53.638;9.876;2024-03-07T05:34:12;22.27;;;13.67;;
56399;SDS011;42298;53.638;9.876;2024-03-07T05:36:38;22.13;;;13.60;;
56399;SDS011;42298;53.638;9.876;2024-03-07T05:39:10;21.93;;;13.13;;
56399;SDS011;42298;53.638;9.876;2024-03-07T05:41:39;20.80;;;13.83;;
56399;SDS011;42298;53.638;9.876;2024-03-07T05:44:05;22.37;;;13.87;;
56399;SDS011;42298;53.638;9.876;2024-03-07T05:46:34;23.60;;;14.80;;
56399;SDS011;42298;53.638;9.876;2024-03-07T05:49:14;24.23;;;16.27;;
56399;SDS011;42298;53.638;9.876;2024-03-07T05:51:41;22.10;;;14.33;;
56399;SDS011;42298;53.638;9.876;2024-03-07T05:54:09;23.03;;;14.83;;
56399;SDS011;42298;53.638;9.876;2024-03-07T05:56:37;21.33;;;14.63;;
56399;SDS011;42298;53.638;9.876;2024-03-07T05:59:03;21.03;;;15.10;;
56399;SDS011;42298;53.638;9.876;2024-03-07T06:01:37;23.40;;;14.83;;
56399;SDS011;42298;53.638;9.876;2024-03-07T06:04:04;20.53;;;13.77;;
56399;SDS011;42298;53.638;9.876;2024-03-07T06:06:31;21.03;;;14.23;;
56399;SDS011;42298;53.638;9.876;2024-03-07T06:09:06;23.17;;;14.77;;
56399;SDS011;42298;53.638;9.876;2024-03-07T06:11:36;22.52;;;17.42;;
56399;SDS011;42298;53.638;9.876;2024-03-07T06:14:02;21.47;;;15.83;;
56399;SDS011;42298;53.638;9.876;2024-03-07T06:16:29;22.40;;;14.53;;
56399;SDS011;42298;53.638;9.876;2024-03-07T06:18:57;23.43;;;15.40;;
56399;SDS011;42298;53.638;9.876;2024-03-07T06:21:24;22.87;;;15.47;;
56399;SDS011;42298;53.638;9.876;2024-03-07T06:23:50;22.43;;;13.67;;
56399;SDS011;42298;53.638;9.876;2024-03-07T06:26:24;24.23;;;15.20;;
56399;SDS011;42298;53.638;9.876;2024-03-07T06:29:02;20.70;;;13.37;;
56399;SDS011;42298;53.638;9.876;2024-03-07T06:31:30;20.43;;;13.13;;
56399;SDS011;42298;53.638;9.876;2024-03-07T06:33:55;21.53;;;16.10;;
56399;SDS011;42298;53.638;9.876;2024-03-07T06:36:20;22.50;;;14.53;;
56399;SDS011;42298;53.638;9.876;2024-03-07T06:38:45;21.42;;;15.05;;
56399;SDS011;42298;53.638;9.876;2024-03-07T06:41:11;23.70;;;15.27;;
56399;SDS011;42298;53.638;9.876;2024-03-07T06:43:36;22.00;;;13.57;;
56399;SDS011;42298;53.638;9.876;2024-03-07T06:46:01;23.70;;;14.27;;
56399;SDS011;42298;53.638;9.876;2024-03-07T06:48:27;19.73;;;13.80;;
56399;SDS011;42298;53.638;9.876;2024-03-07T06:50:53;22.00;;;14.57;;
56399;SDS011;42298;53.638;9.876;2024-03-07T06:53:18;21.77;;;15.10;;
56399;SDS011;42298;53.638;9.876;2024-03-07T06:55:45;20.37;;;14.10;;
56399;SDS011;42298;53.638;9.876;2024-03-07T06:58:10;24.10;;;14.47;;
56399;SDS011;42298;53.638;9.876;2024-03-07T07:00:35;24.50;;;16.30;;
56399;SDS011;42298;53.638;9.876;2024-03-07T07:03:01;22.03;;;15.93;;
56399;SDS011;42298;53.638;9.876;2024-03-07T07:05:28;19.30;;;14.13;;
56399;SDS011;42298;53.638;9.876;2024-03-07T07:07:54;22.03;;;14.77;;
56399;SDS011;42298;53.638;9.876;2024-03-07T07:10:20;23.33;;;15.87;;
56399;SDS011;42298;53.638;9.876;2024-03-07T07:12:49;23.37;;;15.37;;
56399;SDS011;42298;53.638;9.876;2024-03-07T07:15:15;23.00;;;14.37;;
56399;SDS011;42298;53.638;9.876;2024-03-07T07:17:43;21.13;;;14.95;;
56399;SDS011;42298;53.638;9.876;2024-03-07T07:20:11;20.30;;;13.77;;
56399;SDS011;42298;53.638;9.876;2024-03-07T07:22:39;21.23;;;14.27;;
56399;SDS011;42298;53.638;9.876;2024-03-07T07:25:06;19.70;;;13.10;;
56399;SDS011;42298;53.638;9.876;2024-03-07T07:27:39;23.90;;;13.67;;
56399;SDS011;42298;53.638;9.876;2024-03-07T07:30:05;19.20;;;13.60;;
56399;SDS011;42298;53.638;9.876;2024-03-07T07:32:31;22.93;;;12.70;;
56399;SDS011;42298;53.638;9.876;2024-03-07T07:34:57;19.67;;;12.53;;
56399;SDS011;42298;53.638;9.876;2024-03-07T07:37:22;20.50;;;13.13;;
56399;SDS011;42298;53.638;9.876;2024-03-07T07:39:48;19.77;;;13.03;;
56399;SDS011;42298;53.638;9.876;2024-03-07T07:42:13;20.27;;;13.07;;
56399;SDS011;42298;53.638;9.876;2024-03-07T07:44:39;18.80;;;12.87;;
56399;SDS011;42298;53.638;9.876;2024-03-07T07:47:05;22.03;;;13.07;;
56399;SDS011;42298;53.638;9.876;2024-03-07T07:49:30;22.87;;;14.33;;
56399;SDS011;42298;53.638;9.876;2024-03-07T07:51:56;19.93;;;13.13;;
56399;SDS011;42298;53.638;9.876;2024-03-07T07:54:21;23.30;;;12.20;;
56399;SDS011;42298;53.638;9.876;2024-03-07T07:56:46;18.20;;;13.57;;
56399;SDS011;42298;53.638;9.876;2024-03-07T07:59:12;19.60;;;12.87;;
56399;SDS011;42298;53.638;9.876;2024-03-07T08:01:38;20.73;;;12.90;;
56399;SDS011;42298;53.638;9.876;2024-03-07T08:04:04;18.73;;;13.10;;
56399;SDS011;42298;53.638;9.876;2024-03-07T08:06:29;19.97;;;12.63;;
56399;SDS011;42298;53.638;9.876;2024-03-07T08:08:55;21.47;;;13.20;;
56399;SDS011;42298;53.638;9.876;2024-03-07T08:11:20;17.80;;;13.23;;
56399;SDS011;42298;53.638;9.876;2024-03-07T08:13:45;23.83;;;13.57;;
56399;SDS011;42298;53.638;9.876;2024-03-07T08:16:14;22.57;;;12.33;;
56399;SDS011;42298;53.638;9.876;2024-03-07T08:18:41;19.25;;;13.13;;
56399;SDS011;42298;53.638;9.876;2024-03-07T08:21:06;20.87;;;12.20;;
56399;SDS011;42298;53.638;9.876;2024-03-07T08:23:32;20.27;;;13.03;;
56399;SDS011;42298;53.638;9.876;2024-03-07T08:25:58;21.57;;;12.73;;
56399;SDS011;42298;53.638;9.876;2024-03-07T08:28:23;17.70;;;12.17;;
56399;SDS011;42298;53.638;9.876;2024-03-07T08:30:49;19.07;;;12.20;;
56399;SDS011;42298;53.638;9.876;2024-03-07T08:33:14;18.63;;;12.00;;
56399;SDS011;42298;53.638;9.876;2024-03-07T08:35:40;19.03;;;12.37;;
56399;SDS011;42298;53.638;9.876;2024-03-07T08:38:05;21.13;;;13.73;;
56399;SDS011;42298;53.638;9.876;2024-03-07T08:40:30;21.93;;;13.00;;
56399;SDS011;42298;53.638;9.876;2024-03-07T08:42:57;19.70;;;13.57;;
56399;SDS011;42298;53.638;9.876;2024-03-07T08:45:24;18.93;;;12.97;;
56399;SDS011;42298;53.638;9.876;2024-03-07T08:47:51;22.80;;;13.67;;
56399;SDS011;42298;53.638;9.876;2024-03-07T08:50:21;23.63;;;13.60;;
56399;SDS011;42298;53.638;9.876;2024-03-07T08:52:47;20.07;;;13.00;;
56399;SDS011;42298;53.638;9.876;2024-03-07T08:55:13;19.07;;;14.07;;
56399;SDS011;42298;53.638;9.876;2024-03-07T08:57:49;20.30;;;14.30;;
56399;SDS011;42298;53.638;9.876;2024-03-07T09:00:16;21.60;;;14.03;;
56399;SDS011;42298;53.638;9.876;2024-03-07T09:02:49;19.93;;;14.30;;
56399;SDS011;42298;53.638;9.876;2024-03-07T09:05:18;22.30;;;14.03;;
56399;SDS011;42298;53.638;9.876;2024-03-07T09:07:44;21.03;;;13.87;;
56399;SDS011;42298;53.638;9.876;2024-03-07T09:10:11;21.60;;;15.48;;
56399;SDS011;42298;53.638;9.876;2024-03-07T09:12:37;19.77;;;14.40;;
56399;SDS011;42298;53.638;9.876;2024-03-07T09:15:03;21.33;;;14.57;;
56399;SDS011;42298;53.638;9.876;2024-03-07T09:17:29;22.10;;;14.93;;
56399;SDS011;42298;53.638;9.876;2024-03-07T09:19:55;22.17;;;14.97;;
56399;SDS011;42298;53.638;9.876;2024-03-07T09:22:20;19.53;;;13.50;;
56399;SDS011;42298;53.638;9.876;2024-03-07T09:24:45;19.00;;;13.00;;
56399;SDS011;42298;53.638;9.876;2024-03-07T09:27:11;22.70;;;14.77;;
56399;SDS011;42298;53.638;9.876;2024-03-07T09:29:38;22.53;;;14.40;;
56399;SDS011;42298;53.638;9.876;2024-03-07T09:32:03;17.67;;;13.10;;
56399;SDS011;42298;53.638;9.876;2024-03-07T09:34:29;22.07;;;13.53;;
56399;SDS011;42298;53.638;9.876;2024-03-07T09:36:55;20.47;;;15.20;;
56399;SDS011;42298;53.638;9.876;2024-03-07T09:39:21;19.97;;;13.43;;
56399;SDS011;42298;53.638;9.876;2024-03-07T09:41:46;22.70;;;14.00;;
56399;SDS011;42298;53.638;9.876;2024-03-07T09:44:14;24.17;;;14.57;;
56399;SDS011;42298;53.638;9.876;2024-03-07T09:46:47;20.67;;;14.17;;
56399;SDS011;42298;53.638;9.876;2024-03-07T09:49:13;21.87;;;14.93;;
56399;SDS011;42298;53.638;9.876;2024-03-07T09:51:39;22.83;;;14.93;;
56399;SDS011;42298;53.638;9.876;2024-03-07T09:54:05;20.73;;;14.07;;
56399;SDS011;42298;53.638;9.876;2024-03-07T09:56:30;22.23;;;15.77;;
56399;SDS011;42298;53.638;9.876;2024-03-07T09:58:57;22.50;;;15.07;;
56399;SDS011;42298;53.638;9.876;2024-03-07T10:01:27;24.17;;;15.87;;
56399;SDS011;42298;53.638;9.876;2024-03-07T10:03:59;23.60;;;17.40;;
56399;SDS011;42298;53.638;9.876;2024-03-07T10:06:36;25.93;;;17.30;;
56399;SDS011;42298;53.638;9.876;2024-03-07T10:09:03;26.87;;;16.23;;
56399;SDS011;42298;53.638;9.876;2024-03-07T10:11:29;22.87;;;16.07;;
56399;SDS011;42298;53.638;9.876;2024-03-07T10:13:55;24.93;;;16.90;;
56399;SDS011;42298;53.638;9.876;2024-03-07T10:16:20;24.47;;;16.33;;
56399;SDS011;42298;53.638;9.876;2024-03-07T10:18:46;26.63;;;16.70;;
56399;SDS011;42298;53.638;9.876;2024-03-07T10:21:14;23.83;;;15.73;;
56399;SDS011;42298;53.638;9.876;2024-03-07T10:23:42;22.50;;;16.20;;
56399;SDS011;42298;53.638;9.876;2024-03-07T10:26:07;27.77;;;18.03;;
56399;SDS011;42298;53.638;9.876;2024-03-07T10:28:32;26.93;;;18.50;;
56399;SDS011;42298;53.638;9.876;2024-03-07T10:30:58;27.23;;;17.90;;
56399;SDS011;42298;53.638;9.876;2024-03-07T10:33:27;25.60;;;17.97;;
56399;SDS011;42298;53.638;9.876;2024-03-07T10:35:53;24.00;;;16.53;;
56399;SDS011;42298;53.638;9.876;2024-03-07T10:38:18;25.17;;;18.33;;
56399;SDS011;42298;53.638;9.876;2024-03-07T10:40:45;26.93;;;17.77;;
56399;SDS011;42298;53.638;9.876;2024-03-07T10:43:12;26.80;;;17.27;;
56399;SDS011;42298;53.638;9.876;2024-03-07T10:45:46;26.13;;;18.60;;
56399;SDS011;42298;53.638;9.876;2024-03-07T10:48:12;27.77;;;17.70;;
56399;SDS011;42298;53.638;9.876;2024-03-07T10:50:43;26.17;;;18.57;;
56399;SDS011;42298;53.638;9.876;2024-03-07T11:04:29;25.83;;;17.30;;
56399;SDS011;42298;53.638;9.876;2024-03-07T11:06:56;27.53;;;18.53;;
56399;SDS011;42298;53.638;9.876;2024-03-07T11:09:23;26.83;;;19.00;;
56399;SDS011;42298;53.638;9.876;2024-03-07T11:11:54;30.73;;;18.80;;
56399;SDS011;42298;53.638;9.876;2024-03-07T11:14:20;25.73;;;18.37;;
56399;SDS011;42298;53.638;9.876;2024-03-07T11:16:47;25.93;;;17.47;;
56399;SDS011;42298;53.638;9.876;2024-03-07T11:19:20;25.87;;;17.93;;
56399;SDS011;42298;53.638;9.876;2024-03-07T11:21:52;24.88;;;18.92;;
56399;SDS011;42298;53.638;9.876;2024-03-07T11:24:29;25.37;;;17.20;;
56399;SDS011;42298;53.638;9.876;2024-03-07T11:26:57;25.17;;;17.23;;
56399;SDS011;42298;53.638;9.876;2024-03-07T11:32:08;24.90;;;16.83;;
56399;SDS011;42298;53.638;9.876;2024-03-07T11:34:39;23.83;;;17.10;;
56399;SDS011;42298;53.638;9.876;2024-03-07T11:37:16;26.90;;;16.83;;
56399;SDS011;42298;53.638;9.876;2024-03-07T11:39:46;25.87;;;17.07;;
56399;SDS011;42298;53.638;9.876;2024-03-07T11:42:19;26.33;;;17.67;;
56399;SDS011;42298;53.638;9.876;2024-03-07T11:44:45;26.17;;;19.38;;
56399;SDS011;42298;53.638;9.876;2024-03-07T11:47:11;27.03;;;17.83;;
56399;SDS011;42298;53.638;9.876;2024-03-07T11:49:38;27.43;;;18.13;;
56399;SDS011;42298;53.638;9.876;2024-03-07T11:52:03;27.03;;;17.43;;
56399;SDS011;42298;53.638;9.876;2024-03-07T11:54:36;27.37;;;18.40;;
56399;SDS011;42298;53.638;9.876;2024-03-07T11:57:05;24.77;;;18.00;;
56399;SDS011;42298;53.638;9.876;2024-03-07T11:59:37;25.67;;;17.33;;
56399;SDS011;42298;53.638;9.876;2024-03-07T12:02:10;26.93;;;17.70;;
56399;SDS011;42298;53.638;9.876;2024-03-07T12:04:35;30.20;;;17.67;;
56399;SDS011;42298;53.638;9.876;2024-03-07T12:07:01;24.67;;;16.73;;
56399;SDS011;42298;53.638;9.876;2024-03-07T12:09:26;27.33;;;16.00;;
56399;SDS011;42298;53.638;9.876;2024-03-07T12:11:51;25.43;;;19.73;;
56399;SDS011;42298;53.638;9.876;2024-03-07T12:14:20;23.90;;;17.17;;
56399;SDS011;42298;53.638;9.876;2024-03-07T12:16:46;26.47;;;17.90;;
56399;SDS011;42298;53.638;9.876;2024-03-07T12:19:12;25.70;;;17.77;;
56399;SDS011;42298;53.638;9.876;2024-03-07T12:21:42;25.17;;;17.67;;
56399;SDS011;42298;53.638;9.876;2024-03-07T12:24:14;23.87;;;16.80;;
56399;SDS011;42298;53.638;9.876;2024-03-07T12:26:43;26.37;;;18.20;;
56399;SDS011;42298;53.638;9.876;2024-03-07T12:29:09;23.93;;;16.63;;
56399;SDS011;42298;53.638;9.876;2024-03-07T12:31:37;26.63;;;18.23;;
56399;SDS011;42298;53.638;9.876;2024-03-07T12:34:03;27.23;;;18.80;;
56399;SDS011;42298;53.638;9.876;2024-03-07T12:36:29;27.40;;;20.95;;
56399;SDS011;42298;53.638;9.876;2024-03-07T12:38:59;29.00;;;19.23;;
56399;SDS011;42298;53.638;9.876;2024-03-07T12:41:34;26.83;;;18.47;;
56399;SDS011;42298;53.638;9.876;2024-03-07T12:44:00;29.93;;;19.00;;
56399;SDS011;42298;53.638;9.876;2024-03-07T12:46:25;28.00;;;19.57;;
56399;SDS011;42298;53.638;9.876;2024-03-07T12:48:52;28.43;;;18.67;;
56399;SDS011;42298;53.638;9.876;2024-03-07T12:51:20;29.47;;;19.00;;
56399;SDS011;42298;53.638;9.876;2024-03-07T12:53:47;31.33;;;18.70;;
56399;SDS011;42298;53.638;9.876;2024-03-07T12:56:13;27.60;;;18.60;;
56399;SDS011;42298;53.638;9.876;2024-03-07T12:58:43;28.30;;;18.97;;
56399;SDS011;42298;53.638;9.876;2024-03-07T13:01:09;30.30;;;20.90;;
56399;SDS011;42298;53.638;9.876;2024-03-07T13:03:36;32.13;;;19.80;;
56399;SDS011;42298;53.638;9.876;2024-03-07T13:06:01;30.47;;;19.83;;
56399;SDS011;42298;53.638;9.876;2024-03-07T13:08:27;28.97;;;18.03;;
56399;SDS011;42298;53.638;9.876;2024-03-07T13:10:56;28.98;;;21.63;;
56399;SDS011;42298;53.638;9.876;2024-03-07T13:13:24;29.57;;;20.77;;
56399;SDS011;42298;53.638;9.876;2024-03-07T13:15:49;27.30;;;18.97;;
56399;SDS011;42298;53.638;9.876;2024-03-07T13:18:16;28.53;;;19.33;;
56399;SDS011;42298;53.638;9.876;2024-03-07T13:20:41;29.30;;;20.37;;
56399;SDS011;42298;53.638;9.876;2024-03-07T13:23:10;30.77;;;20.47;;
56399;SDS011;42298;53.638;9.876;2024-03-07T13:25:36;28.27;;;19.43;;
56399;SDS011;42298;53.638;9.876;2024-03-07T13:28:07;29.93;;;19.93;;
56399;SDS011;42298;53.638;9.876;2024-03-07T13:30:38;29.13;;;20.53;;
56399;SDS011;42298;53.638;9.876;2024-03-07T13:33:08;26.70;;;19.03;;
56399;SDS011;42298;53.638;9.876;2024-03-07T13:35:35;29.97;;;20.77;;
56399;SDS011;42298;53.638;9.876;2024-03-07T13:38:03;30.27;;;22.50;;
56399;SDS011;42298;53.638;9.876;2024-03-07T13:40:29;30.43;;;22.60;;
56399;SDS011;42298;53.638;9.876;2024-03-07T13:42:56;29.07;;;19.13;;
56399;SDS011;42298;53.638;9.876;2024-03-07T13:45:25;28.63;;;20.50;;
56399;SDS011;42298;53.638;9.876;2024-03-07T13:48:03;28.10;;;19.47;;
56399;SDS011;42298;53.638;9.876;2024-03-07T13:50:30;32.27;;;20.40;;
56399;SDS011;42298;53.638;9.876;2024-03-07T13:52:57;25.10;;;18.63;;
56399;SDS011;42298;53.638;9.876;2024-03-07T14:14:59;29.87;;;20.33;;
56399;SDS011;42298;53.638;9.876;2024-03-07T14:31:38;33.83;;;21.67;;
56399;SDS011;42298;53.638;9.876;2024-03-07T14:34:15;27.47;;;19.33;;
56399;SDS011;42298;53.638;9.876;2024-03-07T14:36:52;31.40;;;20.10;;
56399;SDS011;42298;53.638;9.876;2024-03-07T14:39:22;35.00;;;25.07;;
56399;SDS011;42298;53.638;9.876;2024-03-07T14:41:55;27.63;;;19.83;;
56399;SDS011;42298;53.638;9.876;2024-03-07T14:44:23;31.00;;;21.20;;
56399;SDS011;42298;53.638;9.876;2024-03-07T14:46:52;30.77;;;20.77;;
56399;SDS011;42298;53.638;9.876;2024-03-07T14:49:22;26.20;;;19.97;;
56399;SDS011;42298;53.638;9.876;2024-03-07T14:51:48;30.63;;;20.40;;
56399;SDS011;42298;53.638;9.876;2024-03-07T14:54:15;29.03;;;20.57;;
56399;SDS011;42298;53.638;9.876;2024-03-07T14:56:41;28.57;;;20.13;;
56399;SDS011;42298;53.638;9.876;2024-03-07T14:59:06;32.90;;;22.03;;
56399;SDS011;42298;53.638;9.876;2024-03-07T15:01:32;25.40;;;20.10;;
56399;SDS011;42298;53.638;9.876;2024-03-07T15:03:59;27.97;;;19.60;;
56399;SDS011;42298;53.638;9.876;2024-03-07T15:06:25;28.50;;;20.40;;
56399;SDS011;42298;53.638;9.876;2024-03-07T15:08:50;27.53;;;19.37;;